sensor_id;sensor_type;location;lat;lon;timestamp;P1;durP1;ratioP1;P2;durP2;ratioP2
7899;SDS011;3995;50.856;4.404;2023-02-15T00:01:37;28.02;;;22.95;;
7899;SDS011;3995;50.856;4.404;2023-02-15T00:04:05;28.92;;;23.52;;
7899;SDS011;3995;50.856;4.404;2023-02-15T00:06:34;28.55;;;21.42;;
7899;SDS011;3995;50.856;4.404;2023-02-15T00:09:02;30.40;;;23.08;;
7899;SDS011;3995;50.856;4.404;2023-02-15T00:11:29;29.83;;;22.38;;
7899;SDS011;3995;50.856;4.404;2023-02-15T00:14:08;28.00;;;21.90;;
7899;SDS011;3995;50.856;4.404;2023-02-15T00:16:38;27.00;;;21.20;;
7899;SDS011;3995;50.856;4.404;2023-02-15T00:19:07;28.55;;;22.55;;
7899;SDS011;3995;50.856;4.404;2023-02-15T00:21:35;31.45;;;23.67;;
7899;SDS011;3995;50.856;4.404;2023-02-15T00:24:03;29.05;;;22.15;;
7899;SDS011;3995;50.856;4.404;2023-02-15T00:26:32;29.77;;;21.95;;
7899;SDS011;3995;50.856;4.404;2023-02-15T00:28:59;27.67;;;22.15;;
7899;SDS011;3995;50.856;4.404;2023-02-15T00:31:27;28.05;;;21.75;;
7899;SDS011;3995;50.856;4.404;2023-02-15T00:34:01;31.13;;;22.02;;
7899;SDS011;3995;50.856;4.404;2023-02-15T00:36:29;27.73;;;22.08;;
7899;SDS011;3995;50.856;4.404;2023-02-15T00:38:57;29.60;;;21.92;;
7899;SDS011;3995;50.856;4.404;2023-02-15T00:41:24;27.13;;;22.23;;
7899;SDS011;3995;50.856;4.404;2023-02-15T00:43:51;30.30;;;21.25;;
7899;SDS011;3995;50.856;4.404;2023-02-15T00:46:18;24.92;;;20.23;;
7899;SDS011;3995;50.856;4.404;2023-02-15T00:48:45;26.23;;;20.00;;
7899;SDS011;3995;50.856;4.404;2023-02-15T00:51:14;29.23;;;20.42;;
7899;SDS011;3995;50.856;4.404;2023-02-15T00:53:42;24.80;;;20.55;;
7899;SDS011;3995;50.856;4.404;2023-02-15T00:56:09;26.63;;;21.42;;
7899;SDS011;3995;50.856;4.404;2023-02-15T00:58:37;27.35;;;21.05;;
7899;SDS011;3995;50.856;4.404;2023-02-15T01:01:04;25.63;;;19.60;;
7899;SDS011;3995;50.856;4.404;2023-02-15T01:03:33;24.88;;;19.75;;
7899;SDS011;3995;50.856;4.404;2023-02-15T01:06:00;23.67;;;19.88;;
7899;SDS011;3995;50.856;4.404;2023-02-15T01:08:30;27.98;;;19.30;;
7899;SDS011;3995;50.856;4.404;2023-02-15T01:10:59;26.90;;;21.58;;
7899;SDS011;3995;50.856;4.404;2023-02-15T01:13:29;27.23;;;19.73;;
7899;SDS011;3995;50.856;4.404;2023-02-15T01:15:57;25.88;;;20.17;;
7899;SDS011;3995;50.856;4.404;2023-02-15T01:18:24;26.60;;;21.45;;
7899;SDS011;3995;50.856;4.404;2023-02-15T01:20:51;26.10;;;21.20;;
7899;SDS011;3995;50.856;4.404;2023-02-15T01:23:19;23.92;;;18.92;;
7899;SDS011;3995;50.856;4.404;2023-02-15T01:25:47;23.30;;;19.13;;
7899;SDS011;3995;50.856;4.404;2023-02-15T01:28:15;24.55;;;19.98;;
7899;SDS011;3995;50.856;4.404;2023-02-15T01:30:42;25.10;;;19.95;;
7899;SDS011;3995;50.856;4.404;2023-02-15T01:33:10;25.13;;;19.90;;
7899;SDS011;3995;50.856;4.404;2023-02-15T01:35:42;27.05;;;19.08;;
7899;SDS011;3995;50.856;4.404;2023-02-15T01:38:10;27.33;;;20.33;;
7899;SDS011;3995;50.856;4.404;2023-02-15T01:40:38;24.98;;;19.45;;
7899;SDS011;3995;50.856;4.404;2023-02-15T01:43:09;23.38;;;18.90;;
7899;SDS011;3995;50.856;4.404;2023-02-15T01:45:37;22.60;;;18.50;;
7899;SDS011;3995;50.856;4.404;2023-02-15T01:48:17;23.55;;;18.58;;
7899;SDS011;3995;50.856;4.404;2023-02-15T01:50:47;23.20;;;18.75;;
7899;SDS011;3995;50.856;4.404;2023-02-15T01:53:20;22.35;;;17.90;;
7899;SDS011;3995;50.856;4.404;2023-02-15T01:55:52;24.30;;;20.05;;
7899;SDS011;3995;50.856;4.404;2023-02-15T01:58:26;26.75;;;19.85;;
7899;SDS011;3995;50.856;4.404;2023-02-15T02:00:55;24.30;;;18.80;;
7899;SDS011;3995;50.856;4.404;2023-02-15T02:03:27;22.33;;;18.70;;
7899;SDS011;3995;50.856;4.404;2023-02-15T02:06:02;23.00;;;18.35;;
7899;SDS011;3995;50.856;4.404;2023-02-15T02:08:29;23.75;;;18.10;;
7899;SDS011;3995;50.856;4.404;2023-02-15T02:10:57;22.75;;;18.20;;
7899;SDS011;3995;50.856;4.404;2023-02-15T02:13:26;23.30;;;18.50;;
7899;SDS011;3995;50.856;4.404;2023-02-15T02:15:55;23.70;;;19.48;;
7899;SDS011;3995;50.856;4.404;2023-02-15T02:18:34;24.35;;;19.85;;
7899;SDS011;3995;50.856;4.404;2023-02-15T02:21:16;22.98;;;19.30;;
7899;SDS011;3995;50.856;4.404;2023-02-15T02:24:16;26.50;;;19.35;;
7899;SDS011;3995;50.856;4.404;2023-02-15T02:27:12;24.45;;;19.13;;
7899;SDS011;3995;50.856;4.404;2023-02-15T02:30:00;26.58;;;21.38;;
7899;SDS011;3995;50.856;4.404;2023-02-15T02:32:52;23.77;;;19.55;;
7899;SDS011;3995;50.856;4.404;2023-02-15T02:35:35;21.25;;;18.95;;
7899;SDS011;3995;50.856;4.404;2023-02-15T02:38:11;22.58;;;19.92;;
7899;SDS011;3995;50.856;4.404;2023-02-15T02:40:50;20.63;;;17.60;;
7899;SDS011;3995;50.856;4.404;2023-02-15T02:43:25;24.05;;;19.70;;
7899;SDS011;3995;50.856;4.404;2023-02-15T02:45:59;21.35;;;18.65;;
7899;SDS011;3995;50.856;4.404;2023-02-15T02:48:33;24.60;;;19.50;;
7899;SDS011;3995;50.856;4.404;2023-02-15T02:51:01;26.13;;;19.73;;
7899;SDS011;3995;50.856;4.404;2023-02-15T02:53:28;22.63;;;19.15;;
7899;SDS011;3995;50.856;4.404;2023-02-15T02:55:59;21.80;;;18.58;;
7899;SDS011;3995;50.856;4.404;2023-02-15T02:58:33;24.40;;;18.60;;
7899;SDS011;3995;50.856;4.404;2023-02-15T03:01:06;23.27;;;19.15;;
7899;SDS011;3995;50.856;4.404;2023-02-15T03:03:41;22.90;;;20.38;;
7899;SDS011;3995;50.856;4.404;2023-02-15T03:06:14;22.60;;;20.02;;
7899;SDS011;3995;50.856;4.404;2023-02-15T03:08:45;23.13;;;19.08;;
7899;SDS011;3995;50.856;4.404;2023-02-15T03:11:14;23.33;;;19.50;;
7899;SDS011;3995;50.856;4.404;2023-02-15T03:13:42;22.30;;;19.50;;
7899;SDS011;3995;50.856;4.404;2023-02-15T03:16:11;25.92;;;20.33;;
7899;SDS011;3995;50.856;4.404;2023-02-15T03:18:54;22.25;;;19.35;;
7899;SDS011;3995;50.856;4.404;2023-02-15T03:21:27;23.88;;;20.17;;
7899;SDS011;3995;50.856;4.404;2023-02-15T03:23:59;24.05;;;20.35;;
7899;SDS011;3995;50.856;4.404;2023-02-15T03:26:30;25.02;;;20.48;;
7899;SDS011;3995;50.856;4.404;2023-02-15T03:29:00;21.27;;;18.98;;
7899;SDS011;3995;50.856;4.404;2023-02-15T03:31:32;24.48;;;20.15;;
7899;SDS011;3995;50.856;4.404;2023-02-15T03:34:06;25.73;;;21.50;;
7899;SDS011;3995;50.856;4.404;2023-02-15T03:36:36;22.92;;;20.52;;
7899;SDS011;3995;50.856;4.404;2023-02-15T03:39:12;25.95;;;20.63;;
7899;SDS011;3995;50.856;4.404;2023-02-15T03:41:46;25.77;;;20.45;;
7899;SDS011;3995;50.856;4.404;2023-02-15T03:44:23;29.92;;;19.35;;
7899;SDS011;3995;50.856;4.404;2023-02-15T03:46:56;23.63;;;19.70;;
7899;SDS011;3995;50.856;4.404;2023-02-15T03:49:31;25.10;;;19.73;;
7899;SDS011;3995;50.856;4.404;2023-02-15T03:52:04;22.17;;;19.17;;
7899;SDS011;3995;50.856;4.404;2023-02-15T03:54:33;24.33;;;19.58;;
7899;SDS011;3995;50.856;4.404;2023-02-15T03:57:14;22.13;;;19.75;;
7899;SDS011;3995;50.856;4.404;2023-02-15T04:00:00;21.85;;;19.42;;
7899;SDS011;3995;50.856;4.404;2023-02-15T04:05:38;26.48;;;20.38;;
7899;SDS011;3995;50.856;4.404;2023-02-15T04:08:06;26.35;;;21.52;;
7899;SDS011;3995;50.856;4.404;2023-02-15T04:10:33;22.35;;;19.67;;
7899;SDS011;3995;50.856;4.404;2023-02-15T04:13:18;23.85;;;20.15;;
7899;SDS011;3995;50.856;4.404;2023-02-15T04:15:45;24.30;;;19.92;;
7899;SDS011;3995;50.856;4.404;2023-02-15T04:18:30;25.48;;;20.08;;
7899;SDS011;3995;50.856;4.404;2023-02-15T04:21:17;24.17;;;20.20;;
7899;SDS011;3995;50.856;4.404;2023-02-15T04:24:02;25.45;;;20.65;;
7899;SDS011;3995;50.856;4.404;2023-02-15T04:26:48;21.38;;;18.70;;
7899;SDS011;3995;50.856;4.404;2023-02-15T04:29:19;26.92;;;19.98;;
7899;SDS011;3995;50.856;4.404;2023-02-15T04:31:47;22.00;;;18.83;;
7899;SDS011;3995;50.856;4.404;2023-02-15T04:34:14;20.85;;;18.65;;
7899;SDS011;3995;50.856;4.404;2023-02-15T04:36:43;24.10;;;19.88;;
7899;SDS011;3995;50.856;4.404;2023-02-15T04:39:12;22.00;;;19.67;;
7899;SDS011;3995;50.856;4.404;2023-02-15T04:41:39;23.05;;;19.20;;
7899;SDS011;3995;50.856;4.404;2023-02-15T04:44:07;21.67;;;18.92;;
7899;SDS011;3995;50.856;4.404;2023-02-15T04:46:35;23.05;;;19.55;;
7899;SDS011;3995;50.856;4.404;2023-02-15T04:49:03;22.20;;;19.27;;
7899;SDS011;3995;50.856;4.404;2023-02-15T04:51:30;23.15;;;19.48;;
7899;SDS011;3995;50.856;4.404;2023-02-15T04:53:59;27.38;;;20.98;;
7899;SDS011;3995;50.856;4.404;2023-02-15T04:56:26;23.85;;;20.15;;
7899;SDS011;3995;50.856;4.404;2023-02-15T04:58:55;22.48;;;19.08;;
7899;SDS011;3995;50.856;4.404;2023-02-15T05:01:22;22.45;;;19.08;;
7899;SDS011;3995;50.856;4.404;2023-02-15T05:03:50;26.40;;;20.90;;
7899;SDS011;3995;50.856;4.404;2023-02-15T05:06:17;27.33;;;20.50;;
7899;SDS011;3995;50.856;4.404;2023-02-15T05:08:44;29.50;;;19.30;;
7899;SDS011;3995;50.856;4.404;2023-02-15T05:11:12;22.80;;;19.02;;
7899;SDS011;3995;50.856;4.404;2023-02-15T05:13:39;25.02;;;20.98;;
7899;SDS011;3995;50.856;4.404;2023-02-15T05:16:07;23.80;;;21.23;;
7899;SDS011;3995;50.856;4.404;2023-02-15T05:18:34;23.08;;;20.45;;
7899;SDS011;3995;50.856;4.404;2023-02-15T05:21:02;24.17;;;20.50;;
7899;SDS011;3995;50.856;4.404;2023-02-15T05:23:29;25.50;;;19.98;;
7899;SDS011;3995;50.856;4.404;2023-02-15T05:25:56;26.23;;;20.75;;
7899;SDS011;3995;50.856;4.404;2023-02-15T05:28:42;23.35;;;20.08;;
7899;SDS011;3995;50.856;4.404;2023-02-15T05:31:10;27.00;;;20.48;;
7899;SDS011;3995;50.856;4.404;2023-02-15T05:33:38;24.30;;;20.67;;
7899;SDS011;3995;50.856;4.404;2023-02-15T05:36:06;24.33;;;21.02;;
7899;SDS011;3995;50.856;4.404;2023-02-15T05:38:34;23.42;;;20.33;;
7899;SDS011;3995;50.856;4.404;2023-02-15T05:41:02;24.23;;;20.67;;
7899;SDS011;3995;50.856;4.404;2023-02-15T05:43:30;31.63;;;24.13;;
7899;SDS011;3995;50.856;4.404;2023-02-15T05:45:58;23.70;;;21.20;;
7899;SDS011;3995;50.856;4.404;2023-02-15T05:48:26;27.48;;;21.83;;
7899;SDS011;3995;50.856;4.404;2023-02-15T05:50:57;22.10;;;19.70;;
7899;SDS011;3995;50.856;4.404;2023-02-15T05:53:25;28.20;;;21.95;;
7899;SDS011;3995;50.856;4.404;2023-02-15T05:55:52;25.50;;;20.85;;
7899;SDS011;3995;50.856;4.404;2023-02-15T05:58:23;29.33;;;20.98;;
7899;SDS011;3995;50.856;4.404;2023-02-15T06:00:51;26.45;;;19.95;;
7899;SDS011;3995;50.856;4.404;2023-02-15T06:03:20;24.65;;;19.52;;
7899;SDS011;3995;50.856;4.404;2023-02-15T06:05:47;22.60;;;19.80;;
7899;SDS011;3995;50.856;4.404;2023-02-15T06:08:15;31.73;;;20.48;;
7899;SDS011;3995;50.856;4.404;2023-02-15T06:10:42;28.77;;;22.02;;
7899;SDS011;3995;50.856;4.404;2023-02-15T06:13:09;31.90;;;24.95;;
7899;SDS011;3995;50.856;4.404;2023-02-15T06:15:36;26.08;;;21.90;;
7899;SDS011;3995;50.856;4.404;2023-02-15T06:18:03;31.42;;;23.42;;
7899;SDS011;3995;50.856;4.404;2023-02-15T06:20:32;30.52;;;22.20;;
7899;SDS011;3995;50.856;4.404;2023-02-15T06:22:59;25.63;;;21.95;;
7899;SDS011;3995;50.856;4.404;2023-02-15T06:25:26;28.75;;;22.15;;
7899;SDS011;3995;50.856;4.404;2023-02-15T06:27:53;34.00;;;24.08;;
7899;SDS011;3995;50.856;4.404;2023-02-15T06:30:21;32.88;;;26.13;;
7899;SDS011;3995;50.856;4.404;2023-02-15T06:32:49;30.33;;;24.27;;
7899;SDS011;3995;50.856;4.404;2023-02-15T06:35:16;28.25;;;24.27;;
7899;SDS011;3995;50.856;4.404;2023-02-15T06:37:46;30.65;;;21.65;;
7899;SDS011;3995;50.856;4.404;2023-02-15T06:40:13;28.23;;;21.38;;
7899;SDS011;3995;50.856;4.404;2023-02-15T06:42:40;28.13;;;21.90;;
7899;SDS011;3995;50.856;4.404;2023-02-15T06:45:09;25.48;;;20.23;;
7899;SDS011;3995;50.856;4.404;2023-02-15T06:47:37;23.92;;;20.10;;
7899;SDS011;3995;50.856;4.404;2023-02-15T06:50:05;25.85;;;22.00;;
7899;SDS011;3995;50.856;4.404;2023-02-15T06:52:33;26.80;;;20.65;;
7899;SDS011;3995;50.856;4.404;2023-02-15T06:55:02;23.83;;;20.08;;
7899;SDS011;3995;50.856;4.404;2023-02-15T06:57:29;25.30;;;20.73;;
7899;SDS011;3995;50.856;4.404;2023-02-15T06:59:57;25.67;;;21.20;;
7899;SDS011;3995;50.856;4.404;2023-02-15T07:02:24;25.30;;;21.23;;
7899;SDS011;3995;50.856;4.404;2023-02-15T07:04:52;25.98;;;20.10;;
7899;SDS011;3995;50.856;4.404;2023-02-15T07:07:19;27.25;;;20.67;;
7899;SDS011;3995;50.856;4.404;2023-02-15T07:09:46;25.00;;;20.58;;
7899;SDS011;3995;50.856;4.404;2023-02-15T07:12:15;22.85;;;20.05;;
7899;SDS011;3995;50.856;4.404;2023-02-15T07:14:59;27.73;;;20.90;;
7899;SDS011;3995;50.856;4.404;2023-02-15T07:17:26;27.80;;;21.75;;
7899;SDS011;3995;50.856;4.404;2023-02-15T07:19:54;34.20;;;22.88;;
7899;SDS011;3995;50.856;4.404;2023-02-15T07:22:21;35.30;;;21.60;;
7899;SDS011;3995;50.856;4.404;2023-02-15T07:24:48;31.90;;;22.30;;
7899;SDS011;3995;50.856;4.404;2023-02-15T07:27:21;32.65;;;21.13;;
7899;SDS011;3995;50.856;4.404;2023-02-15T07:29:48;33.45;;;20.98;;
7899;SDS011;3995;50.856;4.404;2023-02-15T07:32:15;27.90;;;20.48;;
7899;SDS011;3995;50.856;4.404;2023-02-15T07:34:43;33.55;;;21.77;;
7899;SDS011;3995;50.856;4.404;2023-02-15T07:37:10;28.40;;;22.00;;
7899;SDS011;3995;50.856;4.404;2023-02-15T07:39:37;29.63;;;21.70;;
7899;SDS011;3995;50.856;4.404;2023-02-15T07:42:05;27.17;;;20.50;;
7899;SDS011;3995;50.856;4.404;2023-02-15T07:44:34;30.88;;;22.90;;
7899;SDS011;3995;50.856;4.404;2023-02-15T07:47:01;24.65;;;20.92;;
7899;SDS011;3995;50.856;4.404;2023-02-15T07:49:28;25.38;;;20.05;;
7899;SDS011;3995;50.856;4.404;2023-02-15T07:51:55;29.42;;;21.73;;
7899;SDS011;3995;50.856;4.404;2023-02-15T07:54:22;25.98;;;20.38;;
7899;SDS011;3995;50.856;4.404;2023-02-15T07:56:50;28.48;;;20.83;;
7899;SDS011;3995;50.856;4.404;2023-02-15T07:59:17;28.20;;;20.80;;
7899;SDS011;3995;50.856;4.404;2023-02-15T08:01:46;28.08;;;20.10;;
7899;SDS011;3995;50.856;4.404;2023-02-15T08:04:14;29.85;;;20.27;;
7899;SDS011;3995;50.856;4.404;2023-02-15T08:06:43;27.92;;;19.45;;
7899;SDS011;3995;50.856;4.404;2023-02-15T08:09:11;26.67;;;20.13;;
7899;SDS011;3995;50.856;4.404;2023-02-15T08:11:38;24.67;;;19.45;;
7899;SDS011;3995;50.856;4.404;2023-02-15T08:14:06;26.52;;;19.75;;
7899;SDS011;3995;50.856;4.404;2023-02-15T08:16:35;31.20;;;20.65;;
7899;SDS011;3995;50.856;4.404;2023-02-15T08:19:06;39.95;;;21.30;;
7899;SDS011;3995;50.856;4.404;2023-02-15T08:21:35;41.38;;;21.02;;
7899;SDS011;3995;50.856;4.404;2023-02-15T08:24:03;31.52;;;20.40;;
7899;SDS011;3995;50.856;4.404;2023-02-15T08:26:31;35.67;;;20.73;;
7899;SDS011;3995;50.856;4.404;2023-02-15T08:29:00;29.75;;;21.27;;
7899;SDS011;3995;50.856;4.404;2023-02-15T08:31:28;34.45;;;21.48;;
7899;SDS011;3995;50.856;4.404;2023-02-15T08:33:56;35.25;;;20.92;;
7899;SDS011;3995;50.856;4.404;2023-02-15T08:36:26;44.00;;;22.42;;
7899;SDS011;3995;50.856;4.404;2023-02-15T08:38:54;44.13;;;20.70;;
7899;SDS011;3995;50.856;4.404;2023-02-15T08:41:24;47.58;;;21.05;;
7899;SDS011;3995;50.856;4.404;2023-02-15T08:43:54;27.67;;;18.15;;
7899;SDS011;3995;50.856;4.404;2023-02-15T08:46:23;25.52;;;16.92;;
7899;SDS011;3995;50.856;4.404;2023-02-15T08:48:52;26.52;;;16.35;;
7899;SDS011;3995;50.856;4.404;2023-02-15T08:51:19;27.83;;;16.70;;
7899;SDS011;3995;50.856;4.404;2023-02-15T08:53:50;30.95;;;17.48;;
7899;SDS011;3995;50.856;4.404;2023-02-15T08:56:18;31.25;;;17.65;;
7899;SDS011;3995;50.856;4.404;2023-02-15T08:58:47;22.33;;;15.90;;
7899;SDS011;3995;50.856;4.404;2023-02-15T09:01:16;23.92;;;15.70;;
7899;SDS011;3995;50.856;4.404;2023-02-15T09:03:45;24.35;;;16.05;;
7899;SDS011;3995;50.856;4.404;2023-02-15T09:06:13;19.67;;;15.10;;
7899;SDS011;3995;50.856;4.404;2023-02-15T09:08:40;24.23;;;15.73;;
7899;SDS011;3995;50.856;4.404;2023-02-15T09:11:11;20.13;;;15.25;;
7899;SDS011;3995;50.856;4.404;2023-02-15T09:13:41;26.85;;;16.02;;
7899;SDS011;3995;50.856;4.404;2023-02-15T09:16:09;24.38;;;15.63;;
7899;SDS011;3995;50.856;4.404;2023-02-15T09:18:37;22.83;;;15.93;;
7899;SDS011;3995;50.856;4.404;2023-02-15T09:21:09;28.80;;;16.00;;
7899;SDS011;3995;50.856;4.404;2023-02-15T09:23:38;20.58;;;15.40;;
7899;SDS011;3995;50.856;4.404;2023-02-15T09:26:06;22.48;;;14.73;;
7899;SDS011;3995;50.856;4.404;2023-02-15T09:28:36;22.00;;;14.45;;
7899;SDS011;3995;50.856;4.404;2023-02-15T09:31:08;22.05;;;14.60;;
7899;SDS011;3995;50.856;4.404;2023-02-15T09:33:36;18.45;;;14.77;;
7899;SDS011;3995;50.856;4.404;2023-02-15T09:36:05;24.58;;;15.43;;
7899;SDS011;3995;50.856;4.404;2023-02-15T09:38:40;17.55;;;14.85;;
7899;SDS011;3995;50.856;4.404;2023-02-15T09:41:14;22.15;;;14.90;;
7899;SDS011;3995;50.856;4.404;2023-02-15T09:44:06;22.90;;;15.73;;
7899;SDS011;3995;50.856;4.404;2023-02-15T09:46:57;20.95;;;14.77;;
7899;SDS011;3995;50.856;4.404;2023-02-15T09:49:33;22.42;;;14.88;;
7899;SDS011;3995;50.856;4.404;2023-02-15T09:52:16;21.80;;;14.95;;
7899;SDS011;3995;50.856;4.404;2023-02-15T09:55:14;23.48;;;16.00;;
7899;SDS011;3995;50.856;4.404;2023-02-15T09:57:52;24.15;;;15.52;;
7899;SDS011;3995;50.856;4.404;2023-02-15T10:00:38;23.52;;;15.65;;
7899;SDS011;3995;50.856;4.404;2023-02-15T10:06:14;27.70;;;16.65;;
7899;SDS011;3995;50.856;4.404;2023-02-15T10:09:09;25.17;;;16.02;;
7899;SDS011;3995;50.856;4.404;2023-02-15T10:15:13;26.77;;;16.85;;
7899;SDS011;3995;50.856;4.404;2023-02-15T10:17:54;21.40;;;15.50;;
7899;SDS011;3995;50.856;4.404;2023-02-15T10:20:32;23.10;;;14.65;;
7899;SDS011;3995;50.856;4.404;2023-02-15T10:23:12;23.35;;;14.75;;
7899;SDS011;3995;50.856;4.404;2023-02-15T10:25:53;25.27;;;16.42;;
7899;SDS011;3995;50.856;4.404;2023-02-15T10:28:26;18.38;;;14.77;;
7899;SDS011;3995;50.856;4.404;2023-02-15T10:30:58;22.27;;;16.55;;
7899;SDS011;3995;50.856;4.404;2023-02-15T10:33:39;19.92;;;15.68;;
7899;SDS011;3995;50.856;4.404;2023-02-15T10:36:14;22.50;;;15.73;;
7899;SDS011;3995;50.856;4.404;2023-02-15T10:38:56;23.40;;;15.90;;
7899;SDS011;3995;50.856;4.404;2023-02-15T10:41:31;24.48;;;17.10;;
7899;SDS011;3995;50.856;4.404;2023-02-15T10:44:11;24.75;;;16.50;;
7899;SDS011;3995;50.856;4.404;2023-02-15T10:46:53;25.55;;;16.58;;
7899;SDS011;3995;50.856;4.404;2023-02-15T10:49:35;23.38;;;16.25;;
7899;SDS011;3995;50.856;4.404;2023-02-15T10:52:21;32.10;;;17.27;;
7899;SDS011;3995;50.856;4.404;2023-02-15T10:55:02;27.95;;;16.65;;
7899;SDS011;3995;50.856;4.404;2023-02-15T10:57:39;26.15;;;17.70;;
7899;SDS011;3995;50.856;4.404;2023-02-15T11:00:16;22.73;;;17.50;;
7899;SDS011;3995;50.856;4.404;2023-02-15T11:05:48;25.00;;;17.58;;
7899;SDS011;3995;50.856;4.404;2023-02-15T11:08:25;28.02;;;17.95;;
7899;SDS011;3995;50.856;4.404;2023-02-15T11:10:56;22.52;;;16.52;;
7899;SDS011;3995;50.856;4.404;2023-02-15T11:13:27;25.00;;;17.45;;
7899;SDS011;3995;50.856;4.404;2023-02-15T11:16:00;23.08;;;17.77;;
7899;SDS011;3995;50.856;4.404;2023-02-15T11:18:31;23.75;;;17.77;;
7899;SDS011;3995;50.856;4.404;2023-02-15T11:21:05;24.85;;;17.67;;
7899;SDS011;3995;50.856;4.404;2023-02-15T11:23:36;25.80;;;17.45;;
7899;SDS011;3995;50.856;4.404;2023-02-15T11:26:12;26.35;;;17.95;;
7899;SDS011;3995;50.856;4.404;2023-02-15T11:28:43;24.92;;;19.02;;
7899;SDS011;3995;50.856;4.404;2023-02-15T11:31:15;26.98;;;17.75;;
7899;SDS011;3995;50.856;4.404;2023-02-15T11:33:45;25.15;;;18.35;;
7899;SDS011;3995;50.856;4.404;2023-02-15T11:36:19;26.92;;;17.63;;
7899;SDS011;3995;50.856;4.404;2023-02-15T11:38:50;23.33;;;17.25;;
7899;SDS011;3995;50.856;4.404;2023-02-15T11:41:24;26.73;;;18.13;;
7899;SDS011;3995;50.856;4.404;2023-02-15T11:43:57;25.60;;;17.70;;
7899;SDS011;3995;50.856;4.404;2023-02-15T11:46:30;24.38;;;19.25;;
7899;SDS011;3995;50.856;4.404;2023-02-15T11:48:58;27.63;;;19.77;;
7899;SDS011;3995;50.856;4.404;2023-02-15T11:51:27;27.60;;;18.23;;
7899;SDS011;3995;50.856;4.404;2023-02-15T11:53:55;27.52;;;19.33;;
7899;SDS011;3995;50.856;4.404;2023-02-15T11:56:24;27.27;;;19.73;;
7899;SDS011;3995;50.856;4.404;2023-02-15T11:58:52;26.67;;;19.10;;
7899;SDS011;3995;50.856;4.404;2023-02-15T12:01:24;27.08;;;18.92;;
7899;SDS011;3995;50.856;4.404;2023-02-15T12:03:57;27.10;;;18.52;;
7899;SDS011;3995;50.856;4.404;2023-02-15T12:06:32;26.60;;;18.90;;
7899;SDS011;3995;50.856;4.404;2023-02-15T12:09:05;36.63;;;19.13;;
7899;SDS011;3995;50.856;4.404;2023-02-15T12:11:40;31.88;;;18.23;;
7899;SDS011;3995;50.856;4.404;2023-02-15T12:14:08;33.30;;;19.52;;
7899;SDS011;3995;50.856;4.404;2023-02-15T12:16:40;28.25;;;19.30;;
7899;SDS011;3995;50.856;4.404;2023-02-15T12:21:57;31.77;;;21.02;;
7899;SDS011;3995;50.856;4.404;2023-02-15T12:24:26;28.33;;;20.10;;
7899;SDS011;3995;50.856;4.404;2023-02-15T12:26:56;27.80;;;19.15;;
7899;SDS011;3995;50.856;4.404;2023-02-15T12:29:27;29.27;;;20.08;;
7899;SDS011;3995;50.856;4.404;2023-02-15T12:31:56;34.35;;;20.42;;
7899;SDS011;3995;50.856;4.404;2023-02-15T12:34:25;27.67;;;20.42;;
7899;SDS011;3995;50.856;4.404;2023-02-15T12:36:57;28.90;;;21.00;;
7899;SDS011;3995;50.856;4.404;2023-02-15T12:39:34;27.98;;;21.45;;
7899;SDS011;3995;50.856;4.404;2023-02-15T12:42:03;28.48;;;20.70;;
7899;SDS011;3995;50.856;4.404;2023-02-15T12:44:32;28.98;;;19.20;;
7899;SDS011;3995;50.856;4.404;2023-02-15T12:47:01;25.38;;;18.85;;
7899;SDS011;3995;50.856;4.404;2023-02-15T12:49:30;36.97;;;19.98;;
7899;SDS011;3995;50.856;4.404;2023-02-15T12:52:00;28.85;;;20.33;;
7899;SDS011;3995;50.856;4.404;2023-02-15T12:54:33;26.80;;;20.45;;
7899;SDS011;3995;50.856;4.404;2023-02-15T12:57:20;25.05;;;19.65;;
7899;SDS011;3995;50.856;4.404;2023-02-15T12:59:51;32.42;;;21.13;;
7899;SDS011;3995;50.856;4.404;2023-02-15T13:02:21;27.13;;;20.05;;
7899;SDS011;3995;50.856;4.404;2023-02-15T13:04:50;27.80;;;21.02;;
7899;SDS011;3995;50.856;4.404;2023-02-15T13:07:20;25.73;;;20.08;;
7899;SDS011;3995;50.856;4.404;2023-02-15T13:09:48;26.90;;;20.42;;
7899;SDS011;3995;50.856;4.404;2023-02-15T13:12:18;26.10;;;20.75;;
7899;SDS011;3995;50.856;4.404;2023-02-15T13:14:49;27.85;;;21.02;;
7899;SDS011;3995;50.856;4.404;2023-02-15T13:17:20;28.45;;;21.38;;
7899;SDS011;3995;50.856;4.404;2023-02-15T13:19:54;26.45;;;19.33;;
7899;SDS011;3995;50.856;4.404;2023-02-15T13:22:27;27.27;;;19.85;;
7899;SDS011;3995;50.856;4.404;2023-02-15T13:25:01;28.70;;;20.98;;
7899;SDS011;3995;50.856;4.404;2023-02-15T13:27:36;28.48;;;20.67;;
7899;SDS011;3995;50.856;4.404;2023-02-15T13:30:10;28.73;;;20.98;;
7899;SDS011;3995;50.856;4.404;2023-02-15T13:32:46;28.77;;;20.67;;
7899;SDS011;3995;50.856;4.404;2023-02-15T13:35:17;27.00;;;20.05;;
7899;SDS011;3995;50.856;4.404;2023-02-15T13:37:51;25.27;;;20.25;;
7899;SDS011;3995;50.856;4.404;2023-02-15T13:40:30;30.63;;;22.45;;
7899;SDS011;3995;50.856;4.404;2023-02-15T13:43:02;28.52;;;21.80;;
7899;SDS011;3995;50.856;4.404;2023-02-15T13:45:42;28.23;;;21.42;;
7899;SDS011;3995;50.856;4.404;2023-02-15T13:48:19;29.70;;;21.45;;
7899;SDS011;3995;50.856;4.404;2023-02-15T13:51:00;37.88;;;22.95;;
7899;SDS011;3995;50.856;4.404;2023-02-15T13:53:45;27.70;;;21.83;;
7899;SDS011;3995;50.856;4.404;2023-02-15T13:56:29;29.02;;;20.77;;
7899;SDS011;3995;50.856;4.404;2023-02-15T13:59:11;35.50;;;25.83;;
7899;SDS011;3995;50.856;4.404;2023-02-15T14:02:08;32.38;;;21.95;;
7899;SDS011;3995;50.856;4.404;2023-02-15T14:05:00;31.00;;;22.10;;
7899;SDS011;3995;50.856;4.404;2023-02-15T14:07:53;28.83;;;20.63;;
7899;SDS011;3995;50.856;4.404;2023-02-15T14:10:29;37.22;;;22.08;;
7899;SDS011;3995;50.856;4.404;2023-02-15T14:13:11;28.83;;;21.38;;
7899;SDS011;3995;50.856;4.404;2023-02-15T14:16:01;31.08;;;21.20;;
7899;SDS011;3995;50.856;4.404;2023-02-15T14:18:34;30.45;;;21.90;;
7899;SDS011;3995;50.856;4.404;2023-02-15T14:21:09;29.48;;;22.02;;
7899;SDS011;3995;50.856;4.404;2023-02-15T14:23:43;30.50;;;22.85;;
7899;SDS011;3995;50.856;4.404;2023-02-15T14:26:25;32.53;;;22.58;;
7899;SDS011;3995;50.856;4.404;2023-02-15T14:29:04;34.88;;;24.33;;
7899;SDS011;3995;50.856;4.404;2023-02-15T14:31:38;30.48;;;23.02;;
7899;SDS011;3995;50.856;4.404;2023-02-15T14:34:08;33.40;;;22.65;;
7899;SDS011;3995;50.856;4.404;2023-02-15T14:36:45;31.80;;;23.27;;
7899;SDS011;3995;50.856;4.404;2023-02-15T14:39:16;38.40;;;24.50;;
7899;SDS011;3995;50.856;4.404;2023-02-15T14:42:17;32.88;;;23.70;;
7899;SDS011;3995;50.856;4.404;2023-02-15T14:44:49;35.00;;;24.88;;
7899;SDS011;3995;50.856;4.404;2023-02-15T14:47:25;29.17;;;23.83;;
7899;SDS011;3995;50.856;4.404;2023-02-15T14:49:58;40.53;;;26.27;;
7899;SDS011;3995;50.856;4.404;2023-02-15T14:52:27;32.88;;;25.30;;
7899;SDS011;3995;50.856;4.404;2023-02-15T14:54:58;30.58;;;24.42;;
7899;SDS011;3995;50.856;4.404;2023-02-15T14:57:31;32.08;;;24.35;;
7899;SDS011;3995;50.856;4.404;2023-02-15T14:59:59;32.83;;;25.25;;
7899;SDS011;3995;50.856;4.404;2023-02-15T15:02:43;35.88;;;24.40;;
7899;SDS011;3995;50.856;4.404;2023-02-15T15:05:17;31.10;;;24.00;;
7899;SDS011;3995;50.856;4.404;2023-02-15T15:07:47;37.03;;;24.05;;
7899;SDS011;3995;50.856;4.404;2023-02-15T15:10:39;35.65;;;27.00;;
7899;SDS011;3995;50.856;4.404;2023-02-15T15:22:34;35.85;;;25.45;;
7899;SDS011;3995;50.856;4.404;2023-02-15T15:25:03;35.38;;;26.40;;
7899;SDS011;3995;50.856;4.404;2023-02-15T15:36:53;34.03;;;25.98;;
7899;SDS011;3995;50.856;4.404;2023-02-15T15:40:07;40.08;;;27.67;;
7899;SDS011;3995;50.856;4.404;2023-02-15T15:42:50;33.83;;;26.08;;
7899;SDS011;3995;50.856;4.404;2023-02-15T15:45:45;36.08;;;26.45;;
7899;SDS011;3995;50.856;4.404;2023-02-15T15:48:32;38.13;;;26.45;;
7899;SDS011;3995;50.856;4.404;2023-02-15T15:51:04;33.70;;;24.58;;
7899;SDS011;3995;50.856;4.404;2023-02-15T15:53:38;34.17;;;25.58;;